createdAt,value
2019-04-06T00:02:21.711Z,45.27
2019-04-06T00:04:50.795Z,44.93
2019-04-06T00:07:20.991Z,84.60
2019-04-06T00:09:50.144Z,48.73
2019-04-06T00:12:19.519Z,46.27
2019-04-06T00:14:48.604Z,45.53
2019-04-06T00:17:17.725Z,46.43
2019-04-06T00:19:46.831Z,48.53
2019-04-06T00:22:15.951Z,47.53
2019-04-06T00:24:45.174Z,47.03
2019-04-06T00:27:14.312Z,49.50
2019-04-06T00:29:43.441Z,48.13
2019-04-06T00:32:22.007Z,47.40
2019-04-06T00:34:51.456Z,48.43
2019-04-06T00:37:20.568Z,48.10
2019-04-06T00:39:49.676Z,48.07
2019-04-06T00:42:18.779Z,47.07
2019-04-06T00:44:48.975Z,46.90
2019-04-06T00:47:18.288Z,46.87
2019-04-06T00:49:47.387Z,44.70
2019-04-06T00:52:16.519Z,46.73
2019-04-06T00:54:45.611Z,45.40
2019-04-06T00:57:14.843Z,44.67
2019-04-06T00:59:44.024Z,43.60
2019-04-06T01:02:13.211Z,43.03
2019-04-06T01:04:43.294Z,43.90
2019-04-06T01:07:12.420Z,43.00
2019-04-06T01:09:41.524Z,43.17
2019-04-06T01:12:10.643Z,43.77
2019-04-06T01:14:39.728Z,42.70
2019-04-06T01:17:08.841Z,42.77
2019-04-06T01:19:37.937Z,44.30
2019-04-06T01:22:07.295Z,41.73
2019-04-06T01:24:36.436Z,43.17
2019-04-06T01:27:05.540Z,44.57
2019-04-06T01:29:34.637Z,42.80
2019-04-06T01:32:03.763Z,42.30
2019-04-06T01:34:32.860Z,42.90
2019-04-06T01:37:02.241Z,43.00
2019-04-06T01:39:31.359Z,41.17
2019-04-06T01:42:00.484Z,42.40
2019-04-06T01:44:29.624Z,40.40
2019-04-06T01:46:58.737Z,41.10
2019-04-06T01:49:27.832Z,41.60
2019-04-06T01:51:56.957Z,40.93
2019-04-06T01:54:26.036Z,44.60
2019-04-06T01:56:55.163Z,43.40
2019-04-06T01:59:24.264Z,43.43
2019-04-06T02:01:57.420Z,41.77
2019-04-06T02:04:26.616Z,42.43
2019-04-06T02:06:55.986Z,44.93
2019-04-06T02:09:25.084Z,45.23
2019-04-06T02:11:54.195Z,43.20
2019-04-06T02:14:23.291Z,43.77
2019-04-06T02:16:52.400Z,43.37
2019-04-06T02:19:21.501Z,42.70
2019-04-06T02:21:50.626Z,42.80
2019-04-06T02:24:19.810Z,44.20
2019-04-06T02:26:49.013Z,42.30
2019-04-06T02:29:18.104Z,30.90
2019-04-06T02:32:06.822Z,42.40
2019-04-06T02:34:55.385Z,43.23
2019-04-06T02:37:43.948Z,43.00
2019-04-06T02:40:28.622Z,39.97
2019-04-06T02:43:02.236Z,40.60
2019-04-06T02:45:31.332Z,40.80
2019-04-06T02:48:00.526Z,43.80
2019-04-06T02:50:29.817Z,41.50
2019-04-06T02:52:59.259Z,40.33
2019-04-06T02:55:28.582Z,41.77
2019-04-06T02:57:58.073Z,42.37
2019-04-06T03:00:27.203Z,40.47
2019-04-06T03:02:56.305Z,41.00
2019-04-06T03:05:25.486Z,42.23
2019-04-06T03:07:54.975Z,41.87
2019-04-06T03:10:24.178Z,41.27
2019-04-06T03:12:53.284Z,41.40
2019-04-06T03:15:22.389Z,44.57
2019-04-06T03:17:51.509Z,42.00
2019-04-06T03:20:20.700Z,42.60
2019-04-06T03:22:49.884Z,41.50
2019-04-06T03:25:19.181Z,41.97
2019-04-06T03:27:48.524Z,43.47
2019-04-06T03:30:17.918Z,44.77
2019-04-06T03:32:47.200Z,41.20
2019-04-06T03:35:16.432Z,42.60
2019-04-06T03:37:46.774Z,42.10
2019-04-06T03:40:16.042Z,42.10
2019-04-06T03:42:45.479Z,43.00
2019-04-06T03:45:15.687Z,41.77
2019-04-06T03:47:44.812Z,41.60
2019-04-06T03:50:13.976Z,43.23
2019-04-06T03:52:43.093Z,40.20
2019-04-06T03:55:12.816Z,42.73
2019-04-06T03:57:42.064Z,44.63
2019-04-06T04:00:12.725Z,39.47
2019-04-06T04:02:41.835Z,40.90
2019-04-06T04:05:11.312Z,41.20
2019-04-06T04:07:40.437Z,41.40
2019-04-06T04:10:10.014Z,42.47
2019-04-06T04:12:39.449Z,41.10
2019-04-06T04:15:08.625Z,42.50
2019-04-06T04:17:37.769Z,41.97
2019-04-06T04:20:07.704Z,39.07
2019-04-06T04:22:37.018Z,40.50
2019-04-06T04:25:06.369Z,39.93
2019-04-06T04:27:35.537Z,41.53
2019-04-06T04:30:04.728Z,42.20
2019-04-06T04:32:33.832Z,42.40
2019-04-06T04:35:03.003Z,43.60
2019-04-06T04:37:32.133Z,43.30
2019-04-06T04:40:01.307Z,42.00
2019-04-06T04:42:30.540Z,41.23
2019-04-06T04:44:59.653Z,43.93
2019-04-06T04:47:29.117Z,42.20
2019-04-06T04:49:58.241Z,40.30
2019-04-06T04:52:27.536Z,42.10
2019-04-06T04:54:56.763Z,41.10
2019-04-06T04:57:26.000Z,40.60
2019-04-06T04:59:55.213Z,41.10
2019-04-06T05:02:24.309Z,42.00
2019-04-06T05:04:53.445Z,41.70
2019-04-06T05:07:22.544Z,39.60
2019-04-06T05:09:51.655Z,41.30
2019-04-06T05:12:20.764Z,41.30
2019-04-06T05:15:03.538Z,42.50
2019-04-06T05:17:33.624Z,41.80
2019-04-06T05:20:02.817Z,44.60
2019-04-06T05:22:31.918Z,42.77
2019-04-06T05:25:01.057Z,40.67
2019-04-06T05:27:30.149Z,40.93
2019-04-06T05:29:59.268Z,41.50
2019-04-06T05:32:28.382Z,42.67
2019-04-06T05:34:58.377Z,45.00
2019-04-06T05:37:27.772Z,46.17
2019-04-06T05:39:56.879Z,46.23
2019-04-06T05:42:25.990Z,45.40
2019-04-06T05:44:55.103Z,48.57
2019-04-06T05:47:24.212Z,46.00
2019-04-06T05:49:53.324Z,48.67
2019-04-06T05:52:22.628Z,45.67
2019-04-06T05:54:52.181Z,48.87
2019-04-06T05:57:21.296Z,48.70
2019-04-06T05:59:50.452Z,45.97
2019-04-06T06:02:19.552Z,46.13
2019-04-06T06:04:48.671Z,48.67
2019-04-06T06:07:17.765Z,51.60
2019-04-06T06:09:47.134Z,50.10
2019-04-06T06:12:16.584Z,52.63
2019-04-06T06:14:46.001Z,53.33
2019-04-06T06:17:15.095Z,50.10
2019-04-06T06:19:44.204Z,51.57
2019-04-06T06:22:13.576Z,53.27
2019-04-06T06:24:42.988Z,52.07
2019-04-06T06:27:12.079Z,53.70
2019-04-06T06:29:41.199Z,51.20
2019-04-06T06:32:10.414Z,52.80
2019-04-06T06:34:39.663Z,54.27
2019-04-06T06:37:08.756Z,55.13
2019-04-06T06:39:37.871Z,53.17
2019-04-06T06:42:06.963Z,56.73
2019-04-06T06:44:36.162Z,55.70
2019-04-06T06:47:05.387Z,58.87
2019-04-06T06:49:34.767Z,56.00
2019-04-06T06:52:03.950Z,56.40
2019-04-06T06:54:33.239Z,57.30
2019-04-06T06:57:02.529Z,58.10
2019-04-06T06:59:31.667Z,62.00
2019-04-06T07:02:00.764Z,57.53
2019-04-06T07:04:30.058Z,57.87
2019-04-06T07:06:59.270Z,59.70
2019-04-06T07:09:28.419Z,59.80
2019-04-06T07:11:57.571Z,58.90
2019-04-06T07:14:26.680Z,59.90
2019-04-06T07:16:55.804Z,61.27
2019-04-06T07:19:24.999Z,63.67
2019-04-06T07:21:55.087Z,59.87
2019-04-06T07:24:24.205Z,59.10
2019-04-06T07:26:53.308Z,60.50
2019-04-06T07:29:23.477Z,59.90
2019-04-06T07:31:52.875Z,57.90
2019-04-06T07:34:23.196Z,59.80
2019-04-06T07:36:52.292Z,58.77
2019-04-06T07:39:21.399Z,57.47
2019-04-06T07:41:50.704Z,57.47
2019-04-06T07:44:19.945Z,61.03
2019-04-06T07:46:49.071Z,59.60
2019-04-06T07:49:18.192Z,59.43
2019-04-06T07:51:47.367Z,57.60
2019-04-06T07:54:16.476Z,57.73
2019-04-06T07:56:45.615Z,55.97
2019-04-06T07:59:14.808Z,55.67
2019-04-06T08:01:43.963Z,54.80
2019-04-06T08:04:13.082Z,54.37
2019-04-06T08:06:42.179Z,53.40
2019-04-06T08:09:11.299Z,54.63
2019-04-06T08:11:40.425Z,54.60
2019-04-06T08:14:09.828Z,54.67
2019-04-06T08:16:38.963Z,53.40
2019-04-06T08:19:08.064Z,51.23
2019-04-06T08:21:37.169Z,53.27
2019-04-06T08:24:07.244Z,51.10
2019-04-06T08:26:36.356Z,52.23
2019-04-06T08:29:05.456Z,51.00
2019-04-06T08:31:34.575Z,52.17
2019-04-06T08:34:03.669Z,52.90
2019-04-06T08:36:32.786Z,50.47
2019-04-06T08:39:04.615Z,50.77
2019-04-06T08:41:34.565Z,51.00
2019-04-06T08:44:03.838Z,49.90
2019-04-06T08:46:32.961Z,49.33
2019-04-06T08:49:03.408Z,49.43
2019-04-06T08:51:32.536Z,51.27
2019-04-06T08:54:01.648Z,48.67
2019-04-06T08:56:30.759Z,51.17
2019-04-06T08:59:10.152Z,50.43
2019-04-06T09:01:30.768Z,51.80
2019-04-06T09:04:00.112Z,49.00
2019-04-06T09:06:29.255Z,49.90
2019-04-06T09:08:58.372Z,50.37
2019-04-06T09:11:27.536Z,51.20
2019-04-06T09:13:56.725Z,48.23
2019-04-06T09:16:26.972Z,51.40
2019-04-06T09:18:56.249Z,48.73
2019-04-06T09:21:25.852Z,51.60
2019-04-06T09:23:55.176Z,50.93
2019-04-06T09:26:24.394Z,47.70
2019-04-06T09:28:53.742Z,50.00
2019-04-06T09:31:23.632Z,49.97
2019-04-06T09:33:52.856Z,50.07
2019-04-06T09:36:21.993Z,49.87
2019-04-06T09:38:51.103Z,48.30
2019-04-06T09:41:20.235Z,48.97
2019-04-06T09:43:49.403Z,50.73
2019-04-06T09:46:40.640Z,48.13
2019-04-06T09:49:31.792Z,48.40
2019-04-06T09:52:29.383Z,48.00
2019-04-06T09:55:20.631Z,49.70
2019-04-06T09:58:03.413Z,47.90
2019-04-06T10:00:40.947Z,48.13
2019-04-06T10:03:35.013Z,47.23
2019-04-06T10:06:22.651Z,45.57
2019-04-06T10:09:02.869Z,48.43
2019-04-06T10:11:52.664Z,48.37
2019-04-06T10:14:37.962Z,47.10
2019-04-06T10:17:19.548Z,48.00
2019-04-06T10:20:06.461Z,48.00
2019-04-06T10:22:46.108Z,47.73
2019-04-06T10:25:23.788Z,44.60
2019-04-06T10:28:11.185Z,44.10
2019-04-06T10:31:02.568Z,44.53
2019-04-06T10:33:39.406Z,45.70
2019-04-06T10:36:33.820Z,44.10
2019-04-06T10:39:20.598Z,42.17
2019-04-06T10:42:07.640Z,40.43
2019-04-06T10:45:08.183Z,40.73
2019-04-06T10:47:49.040Z,40.40
2019-04-06T10:50:36.584Z,38.17
2019-04-06T10:53:18.560Z,38.90
2019-04-06T10:55:58.908Z,38.10
2019-04-06T10:58:47.272Z,36.67
2019-04-06T11:01:34.795Z,36.43
2019-04-06T11:04:10.984Z,36.70
2019-04-06T11:06:53.252Z,37.30
2019-04-06T11:09:35.988Z,36.67
2019-04-06T11:12:14.904Z,36.20
2019-04-06T11:15:02.427Z,34.80
2019-04-06T11:18:01.165Z,33.70
2019-04-06T11:20:47.320Z,33.30
2019-04-06T11:23:34.608Z,34.80
2019-04-06T11:26:22.251Z,34.80
2019-04-06T11:29:17.608Z,34.87
2019-04-06T11:32:14.854Z,35.57
2019-04-06T11:35:01.883Z,33.13
2019-04-06T11:37:56.622Z,34.13
2019-04-06T11:40:53.620Z,32.70
2019-04-06T11:43:42.128Z,29.80
2019-04-06T11:46:19.730Z,31.43
2019-04-06T11:49:02.028Z,30.40
2019-04-06T11:51:54.764Z,29.23
2019-04-06T11:54:40.157Z,27.03
2019-04-06T11:57:21.527Z,27.20
2019-04-06T11:59:59.858Z,27.63
2019-04-06T12:02:48.572Z,26.23
2019-04-06T12:05:52.680Z,27.60
2019-04-06T12:08:39.715Z,30.00
2019-04-06T12:11:37.348Z,28.67
2019-04-06T12:14:26.389Z,29.90
2019-04-06T12:17:14.694Z,29.40
2019-04-06T12:20:02.295Z,28.67
2019-04-06T12:22:50.965Z,30.77
2019-04-06T12:25:32.789Z,27.60
2019-04-06T12:28:12.508Z,30.00
2019-04-06T12:30:52.493Z,28.70
2019-04-06T12:33:40.105Z,28.30
2019-04-06T12:36:27.932Z,28.53
2019-04-06T12:39:14.425Z,27.57
2019-04-06T12:42:06.196Z,30.50
2019-04-06T12:44:55.328Z,29.97
2019-04-06T12:47:37.236Z,29.40
2019-04-06T12:50:16.194Z,29.90
2019-04-06T12:53:17.333Z,30.40
2019-04-06T12:55:59.504Z,30.67
2019-04-06T12:58:46.402Z,31.40
2019-04-06T13:01:24.956Z,30.63
2019-04-06T13:04:13.076Z,30.90
2019-04-06T13:07:01.930Z,30.83
2019-04-06T13:09:54.001Z,26.03
2019-04-06T13:12:41.737Z,25.67
2019-04-06T13:15:30.717Z,27.77
2019-04-06T13:18:25.660Z,29.87
2019-04-06T13:21:23.607Z,29.00
2019-04-06T13:24:12.374Z,29.83
2019-04-06T13:27:09.756Z,30.63
2019-04-06T13:29:49.520Z,30.60
2019-04-06T13:32:37.274Z,31.63
2019-04-06T13:35:12.972Z,30.40
2019-04-06T13:38:13.026Z,29.10
2019-04-06T13:41:13.645Z,26.50
2019-04-06T13:43:48.668Z,27.03
2019-04-06T13:46:37.720Z,27.93
2019-04-06T13:49:21.405Z,25.50
2019-04-06T13:52:03.470Z,24.50
2019-04-06T13:55:01.328Z,23.40
2019-04-06T13:57:39.121Z,25.10
2019-04-06T14:00:21.246Z,24.57
2019-04-06T14:03:19.219Z,24.27
2019-04-06T14:06:13.924Z,23.93
2019-04-06T14:08:56.674Z,24.63
2019-04-06T14:11:48.501Z,23.90
2019-04-06T14:14:29.161Z,22.63
2019-04-06T14:17:31.913Z,22.47
2019-04-06T14:20:18.305Z,22.40
2019-04-06T14:22:56.492Z,23.40
2019-04-06T14:25:40.456Z,21.23
2019-04-06T14:28:22.657Z,20.20
2019-04-06T14:31:10.269Z,21.27
2019-04-06T14:34:08.464Z,21.53
2019-04-06T14:36:47.596Z,26.07
2019-04-06T14:39:36.328Z,21.40
2019-04-06T14:42:33.408Z,20.03
2019-04-06T14:45:21.898Z,20.83
2019-04-06T14:48:16.515Z,19.90
2019-04-06T14:50:56.286Z,19.03
2019-04-06T14:53:43.949Z,17.90
2019-04-06T14:56:48.392Z,19.90
2019-04-06T14:59:35.040Z,20.50
2019-04-06T15:02:27.431Z,19.97
2019-04-06T15:05:22.267Z,19.13
2019-04-06T15:08:10.547Z,19.70
2019-04-06T15:11:02.628Z,18.70
2019-04-06T15:13:49.093Z,18.70
2019-04-06T15:16:28.064Z,18.63
2019-04-06T15:19:14.989Z,17.50
2019-04-06T15:22:04.723Z,17.83
2019-04-06T15:24:40.881Z,19.30
2019-04-06T15:27:32.068Z,21.57
2019-04-06T15:30:20.360Z,27.17
2019-04-06T15:33:17.921Z,31.70
2019-04-06T15:36:10.951Z,29.30
2019-04-06T15:39:08.799Z,31.13
2019-04-06T15:41:55.339Z,31.53
2019-04-06T15:44:36.204Z,31.67
2019-04-06T15:47:36.984Z,33.10
2019-04-06T15:50:26.470Z,31.83
2019-04-06T15:53:10.807Z,31.40
2019-04-06T15:55:58.000Z,31.00
2019-04-06T15:58:40.305Z,31.97
2019-04-06T16:01:28.613Z,32.10
2019-04-06T16:04:23.051Z,31.20
2019-04-06T16:07:02.373Z,29.80
2019-04-06T16:10:03.414Z,32.37
2019-04-06T16:12:38.847Z,33.13
2019-04-06T16:15:17.374Z,30.87
2019-04-06T16:18:06.106Z,30.40
2019-04-06T16:20:41.053Z,29.90
2019-04-06T16:23:35.485Z,30.73
2019-04-06T16:26:16.995Z,30.40
2019-04-06T16:29:10.376Z,28.67
2019-04-06T16:32:10.844Z,30.87
2019-04-06T16:34:52.113Z,31.70
2019-04-06T16:37:56.121Z,29.57
2019-04-06T16:40:34.336Z,29.67
2019-04-06T16:43:28.204Z,29.90
2019-04-06T16:46:07.412Z,30.10
2019-04-06T16:48:43.273Z,29.90
2019-04-06T16:51:44.079Z,30.47
2019-04-06T16:54:28.780Z,31.00
2019-04-06T16:57:03.932Z,31.70
2019-04-06T16:59:39.380Z,30.10
2019-04-06T17:02:25.525Z,28.03
2019-04-06T17:05:08.987Z,30.33
2019-04-06T17:07:51.069Z,31.20
2019-04-06T17:10:37.100Z,31.63
2019-04-06T17:13:29.241Z,32.80
2019-04-06T17:16:09.388Z,31.77
2019-04-06T17:19:12.781Z,30.50
2019-04-06T17:21:47.731Z,31.33
2019-04-06T17:24:42.122Z,30.77
2019-04-06T17:27:30.585Z,30.50
2019-04-06T17:30:25.250Z,32.83
2019-04-06T17:33:05.334Z,31.33
2019-04-06T17:35:58.304Z,31.80
2019-04-06T17:38:41.650Z,32.37
2019-04-06T17:41:36.692Z,32.83
2019-04-06T17:44:16.524Z,32.47
2019-04-06T17:47:06.195Z,34.90
2019-04-06T17:49:59.868Z,34.63
2019-04-06T17:52:37.358Z,32.00
2019-04-06T17:55:35.987Z,31.80
2019-04-06T17:58:14.157Z,32.83
2019-04-06T18:01:01.669Z,32.03
2019-04-06T18:03:59.169Z,31.90
2019-04-06T18:06:43.460Z,32.40
2019-04-06T18:09:26.408Z,32.90
2019-04-06T18:12:18.450Z,33.13
2019-04-06T18:14:49.452Z,33.57
2019-04-06T18:17:19.232Z,35.73
2019-04-06T18:19:48.860Z,34.43
2019-04-06T18:22:18.531Z,31.63
2019-04-06T18:24:48.965Z,34.13
2019-04-06T18:27:18.682Z,34.57
2019-04-06T18:29:49.240Z,36.40
2019-04-06T18:32:28.656Z,35.00
2019-04-06T18:34:58.385Z,33.77
2019-04-06T18:37:47.145Z,35.60
2019-04-06T18:40:27.324Z,33.50
2019-04-06T18:42:57.937Z,33.90
2019-04-06T18:45:29.955Z,34.37
2019-04-06T18:47:59.686Z,33.17
2019-04-06T18:50:36.529Z,33.73
2019-04-06T18:53:02.231Z,34.97
2019-04-06T18:55:33.021Z,33.97
2019-04-06T18:58:10.088Z,34.93
2019-04-06T19:00:34.594Z,33.83
2019-04-06T19:03:12.452Z,32.43
2019-04-06T19:05:36.240Z,34.13
2019-04-06T19:08:06.789Z,34.87
2019-04-06T19:10:36.644Z,35.60
2019-04-06T19:13:05.918Z,35.47
2019-04-06T19:15:35.112Z,34.67
2019-04-06T19:18:04.315Z,34.10
2019-04-06T19:20:33.441Z,34.53
2019-04-06T19:23:02.642Z,36.43
2019-04-06T19:25:31.849Z,33.93
2019-04-06T19:28:01.058Z,34.50
2019-04-06T19:30:30.683Z,35.17
2019-04-06T19:32:59.991Z,32.93
2019-04-06T19:35:29.265Z,36.37
2019-04-06T19:37:58.449Z,37.60
2019-04-06T19:40:28.064Z,32.87
2019-04-06T19:42:58.124Z,36.60
2019-04-06T19:45:27.241Z,36.80
2019-04-06T19:47:56.745Z,34.20
2019-04-06T19:50:25.998Z,33.80
2019-04-06T19:52:55.424Z,34.83
2019-04-06T19:55:24.617Z,35.30
2019-04-06T19:57:53.864Z,33.97
2019-04-06T20:00:23.788Z,35.67
2019-04-06T20:02:53.197Z,34.27
2019-04-06T20:05:22.308Z,36.20
2019-04-06T20:07:51.504Z,33.50
2019-04-06T20:10:20.699Z,35.00
2019-04-06T20:12:50.319Z,35.70
2019-04-06T20:15:19.802Z,35.50
2019-04-06T20:17:49.000Z,37.57
2019-04-06T20:20:18.677Z,34.93
2019-04-06T20:22:48.828Z,37.83
2019-04-06T20:25:19.296Z,37.30
2019-04-06T20:27:48.644Z,36.90
2019-04-06T20:30:17.922Z,37.03
2019-04-06T20:32:47.116Z,37.20
2019-04-06T20:35:16.697Z,37.90
2019-04-06T20:37:45.921Z,35.47
2019-04-06T20:40:15.436Z,37.37
2019-04-06T20:42:44.964Z,37.23
2019-04-06T20:45:14.896Z,36.97
2019-04-06T20:47:44.963Z,40.30
2019-04-06T20:50:14.525Z,39.63
2019-04-06T20:52:43.911Z,38.87
2019-04-06T20:55:13.472Z,41.60
2019-04-06T20:57:42.719Z,39.80
2019-04-06T21:00:12.547Z,41.10
2019-04-06T21:02:41.928Z,40.13
2019-04-06T21:05:11.390Z,41.17
2019-04-06T21:07:41.507Z,43.23
2019-04-06T21:10:11.344Z,44.37
2019-04-06T21:12:40.453Z,42.83
2019-04-06T21:15:19.023Z,42.60
2019-04-06T21:17:40.829Z,41.80
2019-04-06T21:20:10.705Z,42.33
2019-04-06T21:22:39.900Z,42.73
2019-04-06T21:25:09.100Z,45.63
2019-04-06T21:27:38.224Z,44.47
2019-04-06T21:30:08.204Z,45.10
2019-04-06T21:32:37.462Z,44.37
2019-04-06T21:35:07.057Z,43.67
2019-04-06T21:37:36.837Z,43.60
2019-04-06T21:40:06.668Z,44.30
2019-04-06T21:42:36.503Z,42.60
2019-04-06T21:45:06.354Z,46.97
2019-04-06T21:47:35.720Z,43.03
2019-04-06T21:50:05.804Z,41.37
2019-04-06T21:52:35.288Z,41.17
2019-04-06T21:55:05.004Z,41.27
2019-04-06T21:57:34.113Z,40.63
2019-04-06T22:00:04.275Z,40.13
2019-04-06T22:02:35.465Z,41.13
2019-04-06T22:05:05.581Z,41.10
2019-04-06T22:07:47.267Z,41.10
2019-04-06T22:10:06.424Z,41.53
2019-04-06T22:12:35.570Z,40.80
2019-04-06T22:15:05.893Z,41.20
2019-04-06T22:17:35.893Z,48.90
2019-04-06T22:20:05.677Z,41.43
2019-04-06T22:22:35.488Z,39.77
2019-04-06T22:25:06.272Z,39.50
2019-04-06T22:27:35.688Z,40.03
2019-04-06T22:30:06.894Z,39.27
2019-04-06T22:32:36.495Z,39.07
2019-04-06T22:35:06.069Z,42.17
2019-04-06T22:37:35.883Z,40.30
2019-04-06T22:40:05.504Z,40.80
2019-04-06T22:42:35.721Z,40.23
2019-04-06T22:45:05.238Z,37.80
2019-04-06T22:47:34.780Z,38.80
2019-04-06T22:50:04.553Z,40.03
2019-04-06T22:52:34.263Z,42.17
2019-04-06T22:55:03.871Z,40.63
2019-04-06T22:57:32.993Z,37.77
2019-04-06T23:00:02.776Z,41.10
2019-04-06T23:02:41.478Z,39.10
2019-04-06T23:05:25.867Z,39.57
2019-04-06T23:07:55.143Z,39.00
2019-04-06T23:10:24.852Z,39.70
2019-04-06T23:12:54.174Z,39.60
2019-04-06T23:15:23.391Z,40.27
2019-04-06T23:17:52.750Z,39.70
2019-04-06T23:20:22.236Z,41.40
2019-04-06T23:22:51.501Z,39.90
2019-04-06T23:25:21.116Z,40.27
2019-04-06T23:27:50.314Z,40.53
2019-04-06T23:30:19.435Z,42.43
2019-04-06T23:32:50.007Z,40.93
2019-04-06T23:35:19.819Z,41.17
2019-04-06T23:37:49.185Z,42.67
2019-04-06T23:40:18.927Z,40.67
2019-04-06T23:42:48.276Z,42.20
2019-04-06T23:45:17.572Z,40.70
2019-04-06T23:47:46.756Z,41.37
2019-04-06T23:50:16.899Z,40.43
2019-04-06T23:52:46.629Z,41.57
2019-04-06T23:55:16.322Z,42.37
2019-04-06T23:57:45.594Z,41.90
